Time;durP1;ratioP1;P1;durP2;ratioP2;P2;SDS_P1;SDS_P2;PMS_P1;PMS_P2;Temp;Humidity;BMP_temperature;BMP_pressure;BME280_temperature;BME280_humidity;BME280_pressure;Samples;Min_cycle;Max_cycle;Signal;HPM_P1;HPM_P2
2022/07/12 00:01:43;;;;;;;5.03;1.90;;;19.10;75.10;;;;;;5017062;28;20057;-65
2022/07/12 00:04:09;;;;;;;3.63;1.80;;;19.10;75.20;;;;;;5013644;28;20090;-65
2022/07/12 00:06:34;;;;;;;5.15;2.30;;;19.00;75.30;;;;;;5015094;28;20532;-65
2022/07/12 00:09:00;;;;;;;4.97;2.00;;;19.00;75.30;;;;;;5013866;28;20072;-65
2022/07/12 00:11:26;;;;;;;5.15;2.03;;;19.00;75.30;;;;;;5014265;28;20078;-65
2022/07/12 00:13:51;;;;;;;4.20;1.83;;;19.00;75.40;;;;;;5023018;28;20043;-65
2022/07/12 00:16:17;;;;;;;4.32;1.85;;;19.00;75.40;;;;;;5016738;28;20120;-65
2022/07/12 00:18:43;;;;;;;6.20;2.03;;;18.90;75.40;;;;;;5026165;28;20033;-65
2022/07/12 00:21:08;;;;;;;4.10;1.90;;;18.90;75.50;;;;;;5022614;28;20064;-65
2022/07/12 00:23:34;;;;;;;3.08;1.67;;;18.90;75.50;;;;;;5012285;28;20052;-65
2022/07/12 00:26:04;;;;;;;4.13;2.00;;;18.90;75.60;;;;;;5008077;28;20026;-65
2022/07/12 00:28:32;;;;;;;3.97;2.08;;;18.90;75.60;;;;;;5023940;28;20451;-65
2022/07/12 00:30:59;;;;;;;4.90;2.38;;;18.80;75.60;;;;;;5028000;28;20033;-65
2022/07/12 00:33:25;;;;;;;4.93;2.22;;;18.80;75.70;;;;;;5022395;28;20375;-65
2022/07/12 00:35:51;;;;;;;4.95;2.15;;;18.80;75.70;;;;;;5020902;28;20026;-65
2022/07/12 00:38:17;;;;;;;4.88;2.10;;;18.80;75.70;;;;;;5030519;28;20072;-65
2022/07/12 00:40:43;;;;;;;4.05;2.10;;;18.80;75.80;;;;;;5026547;28;20063;-65
2022/07/12 00:43:09;;;;;;;3.60;1.92;;;18.80;75.80;;;;;;5028693;28;20037;-65
2022/07/12 00:45:35;;;;;;;3.70;1.92;;;18.80;75.80;;;;;;5014131;28;20026;-65
2022/07/12 00:48:01;;;;;;;4.40;2.00;;;18.70;75.80;;;;;;5023639;28;20025;-65
2022/07/12 00:50:27;;;;;;;4.22;2.08;;;18.70;75.80;;;;;;5017138;28;20553;-65
2022/07/12 00:52:54;;;;;;;4.07;1.80;;;18.70;75.90;;;;;;5024543;28;20113;-65
2022/07/12 00:55:21;;;;;;;5.40;2.00;;;18.70;76.00;;;;;;5012067;28;20021;-65
2022/07/12 00:57:49;;;;;;;4.60;2.22;;;18.60;76.00;;;;;;5022519;28;20040;-65
2022/07/12 01:00:26;;;;;;;3.67;2.00;;;18.70;76.10;;;;;;5019999;28;20394;-65
2022/07/12 01:02:54;;;;;;;4.75;2.10;;;18.60;76.10;;;;;;5021506;28;21789;-65
2022/07/12 01:05:20;;;;;;;5.32;1.90;;;18.60;76.10;;;;;;5033298;28;20033;-65
2022/07/12 01:07:46;;;;;;;4.72;2.30;;;18.60;76.10;;;;;;5026785;28;20035;-65
2022/07/12 01:10:12;;;;;;;4.40;2.00;;;18.60;76.10;;;;;;5018217;28;20030;-65
2022/07/12 01:12:37;;;;;;;3.40;1.88;;;18.60;76.10;;;;;;5027528;28;20033;-65
2022/07/12 01:15:08;;;;;;;3.38;1.70;;;18.60;76.20;;;;;;5034703;28;20120;-65
2022/07/12 01:17:34;;;;;;;4.72;2.03;;;18.60;76.20;;;;;;5025733;28;20037;-65
2022/07/12 01:20:01;;;;;;;3.95;1.90;;;18.50;76.20;;;;;;5018324;28;20037;-65
2022/07/12 01:22:40;;;;;;;3.55;1.90;;;18.50;76.20;;;;;;5026763;28;20030;-65
2022/07/12 01:25:06;;;;;;;4.22;2.10;;;18.50;76.30;;;;;;5014342;28;20675;-65
2022/07/12 01:27:33;;;;;;;5.05;2.10;;;18.50;76.20;;;;;;5018392;28;20029;-65
2022/07/12 01:30:02;;;;;;;4.05;1.73;;;18.50;76.30;;;;;;5026947;28;20064;-65
2022/07/12 01:32:29;;;;;;;4.15;2.00;;;18.50;76.30;;;;;;5024786;28;20037;-65
2022/07/12 01:35:00;;;;;;;3.83;1.80;;;18.40;76.30;;;;;;5023186;28;20044;-65
2022/07/12 01:37:37;;;;;;;2.90;1.65;;;18.40;76.40;;;;;;5016919;28;20470;-65
2022/07/12 01:40:08;;;;;;;3.05;1.70;;;18.40;76.40;;;;;;5022049;28;20104;-65
2022/07/12 01:42:35;;;;;;;4.45;2.20;;;18.40;76.40;;;;;;5024777;28;20048;-65
2022/07/12 01:45:01;;;;;;;5.20;2.20;;;18.40;76.40;;;;;;5021114;28;20029;-65
2022/07/12 01:47:31;;;;;;;5.72;2.38;;;18.40;76.40;;;;;;5022844;28;20037;-65
2022/07/12 01:49:57;;;;;;;4.35;2.10;;;18.40;76.40;;;;;;5025508;28;20109;-65
2022/07/12 01:52:23;;;;;;;3.97;1.95;;;18.40;76.50;;;;;;5022770;28;20065;-65
2022/07/12 01:54:49;;;;;;;4.72;2.15;;;18.40;76.50;;;;;;5018991;28;20065;-65
2022/07/12 01:57:15;;;;;;;3.90;1.95;;;18.30;76.40;;;;;;5027278;28;20026;-65
2022/07/12 01:59:41;;;;;;;5.25;2.47;;;18.30;76.50;;;;;;5021151;28;20450;-65
2022/07/12 02:02:07;;;;;;;4.70;2.22;;;18.30;76.50;;;;;;5025824;28;20036;-65
2022/07/12 02:04:33;;;;;;;4.05;2.08;;;18.30;76.60;;;;;;5024800;28;20021;-65
2022/07/12 02:07:00;;;;;;;4.22;2.10;;;18.30;76.60;;;;;;5033979;28;20026;-65
2022/07/12 02:09:26;;;;;;;4.68;2.10;;;18.30;76.60;;;;;;5015544;28;20038;-65
2022/07/12 02:11:53;;;;;;;4.63;2.10;;;18.30;76.60;;;;;;5035284;28;20045;-65
2022/07/12 02:14:19;;;;;;;5.05;2.28;;;18.30;76.60;;;;;;5022450;28;20021;-65
2022/07/12 02:16:45;;;;;;;4.40;2.00;;;18.20;76.60;;;;;;5033490;28;20037;-65
2022/07/12 02:19:12;;;;;;;4.93;2.20;;;18.20;76.60;;;;;;5020001;28;20030;-65
2022/07/12 02:21:37;;;;;;;5.38;2.30;;;18.20;76.70;;;;;;5022223;28;20025;-65
2022/07/12 02:24:04;;;;;;;4.70;2.25;;;18.20;76.70;;;;;;5023035;28;20029;-65
2022/07/12 02:26:29;;;;;;;4.72;2.60;;;18.20;76.70;;;;;;5020962;28;20030;-65
2022/07/12 02:28:56;;;;;;;4.57;2.22;;;18.20;76.80;;;;;;5016506;28;20022;-65
2022/07/12 02:31:21;;;;;;;5.55;2.35;;;18.10;76.70;;;;;;5016289;28;20038;-65
2022/07/12 02:33:47;;;;;;;4.35;2.30;;;18.20;76.80;;;;;;5016338;28;20026;-65
2022/07/12 02:36:12;;;;;;;5.15;2.40;;;18.10;76.80;;;;;;5017147;28;20038;-65
2022/07/12 02:38:38;;;;;;;5.60;2.53;;;18.10;76.80;;;;;;5016687;28;20030;-65
2022/07/12 02:41:04;;;;;;;4.43;2.30;;;18.10;76.80;;;;;;5015685;28;20388;-65
2022/07/12 02:43:30;;;;;;;5.00;2.33;;;18.10;76.90;;;;;;5017309;28;20034;-65
2022/07/12 02:46:10;;;;;;;5.00;2.45;;;18.10;76.90;;;;;;5016143;28;20021;-65
2022/07/12 02:48:36;;;;;;;4.72;2.65;;;18.10;76.90;;;;;;5016407;28;20037;-65
2022/07/12 02:51:03;;;;;;;5.28;2.67;;;18.10;76.90;;;;;;5031575;28;20356;-65
2022/07/12 02:53:30;;;;;;;4.97;2.25;;;18.00;76.90;;;;;;5016270;28;20060;-65
2022/07/12 02:55:55;;;;;;;4.80;2.70;;;18.00;76.90;;;;;;5026313;28;20469;-65
2022/07/12 02:58:21;;;;;;;5.30;2.60;;;18.00;76.90;;;;;;5017118;28;20021;-65
2022/07/12 03:00:47;;;;;;;5.85;2.90;;;18.00;76.90;;;;;;5012570;28;20034;-65
2022/07/12 03:03:13;;;;;;;5.22;2.42;;;18.00;77.00;;;;;;5016169;28;20022;-65
2022/07/12 03:05:39;;;;;;;6.18;3.08;;;18.00;77.00;;;;;;5015791;28;20057;-65
2022/07/12 03:08:07;;;;;;;5.50;2.70;;;17.90;77.60;;;;;;5017103;28;20034;-65
2022/07/12 03:10:33;;;;;;;5.90;2.65;;;18.00;77.10;;;;;;5017867;28;20104;-65
2022/07/12 03:12:59;;;;;;;5.38;2.80;;;18.00;77.20;;;;;;5015584;28;20034;-65
2022/07/12 03:15:27;;;;;;;7.38;3.13;;;18.00;77.30;;;;;;5015377;28;20382;-65
2022/07/12 03:17:54;;;;;;;5.82;2.92;;;18.00;77.30;;;;;;5016488;28;20107;-65
2022/07/12 03:20:20;;;;;;;7.18;3.00;;;18.00;77.30;;;;;;5014395;28;20030;-65
2022/07/12 03:22:48;;;;;;;5.63;3.15;;;18.00;77.40;;;;;;5015632;28;20041;-65
2022/07/12 03:25:14;;;;;;;5.93;3.30;;;17.90;77.30;;;;;;5016476;28;20030;-65
2022/07/12 03:27:40;;;;;;;5.93;3.22;;;17.90;77.40;;;;;;5035884;28;20079;-65
2022/07/12 03:30:07;;;;;;;5.18;3.17;;;18.00;77.50;;;;;;5020831;28;20026;-65
2022/07/12 03:32:32;;;;;;;6.68;3.30;;;18.00;77.50;;;;;;5026296;28;20032;-65
2022/07/12 03:34:58;;;;;;;6.10;3.30;;;17.90;77.50;;;;;;5014609;28;20328;-65
2022/07/12 03:37:24;;;;;;;7.00;3.45;;;18.00;77.50;;;;;;5020534;28;20176;-65
2022/07/12 03:39:49;;;;;;;6.45;3.15;;;17.90;77.40;;;;;;5021661;28;20081;-65
2022/07/12 03:42:15;;;;;;;6.22;3.55;;;17.90;77.50;;;;;;5018876;28;20087;-65
2022/07/12 03:44:41;;;;;;;6.03;3.50;;;17.90;77.50;;;;;;5020575;28;20041;-65
2022/07/12 03:47:06;;;;;;;6.55;3.58;;;17.90;77.50;;;;;;5015755;28;20034;-65
2022/07/12 03:49:32;;;;;;;5.78;3.60;;;17.90;77.50;;;;;;5015665;28;20064;-65
2022/07/12 03:51:58;;;;;;;5.75;3.47;;;17.90;77.50;;;;;;5016318;28;20524;-65
2022/07/12 03:54:23;;;;;;;6.05;3.47;;;17.90;77.60;;;;;;5015015;28;20030;-65
2022/07/12 03:59:34;;;;;;;5.95;3.58;;;17.90;77.70;;;;;;5015307;28;20041;-65
2022/07/12 04:02:01;;;;;;;6.05;3.50;;;17.90;78.50;;;;;;5015752;28;20037;-64
2022/07/12 04:04:27;;;;;;;6.38;3.67;;;17.90;77.70;;;;;;5015316;28;20033;-64
2022/07/12 04:06:53;;;;;;;5.93;3.72;;;17.90;77.70;;;;;;5015146;28;20100;-65
2022/07/12 04:09:18;;;;;;;6.47;3.80;;;17.90;77.70;;;;;;5015082;28;20435;-65
2022/07/12 04:11:44;;;;;;;7.70;3.85;;;17.90;77.80;;;;;;5015707;28;20041;-65
2022/07/12 04:14:10;;;;;;;6.30;3.65;;;17.90;77.80;;;;;;5013364;28;20459;-65
2022/07/12 04:16:35;;;;;;;7.32;3.88;;;17.90;77.90;;;;;;5016645;28;20033;-65
2022/07/12 04:19:01;;;;;;;6.57;3.78;;;17.90;77.90;;;;;;5014424;28;20375;-65
2022/07/12 04:21:26;;;;;;;7.25;3.88;;;18.00;77.90;;;;;;5010702;28;20038;-64
2022/07/12 04:23:52;;;;;;;6.80;3.95;;;17.90;77.90;;;;;;5015335;28;20050;-64
2022/07/12 04:26:17;;;;;;;8.30;4.05;;;18.00;78.00;;;;;;5023516;28;20112;-64
2022/07/12 04:28:43;;;;;;;8.40;4.30;;;17.90;77.90;;;;;;5032994;28;20032;-64
2022/07/12 04:31:09;;;;;;;5.88;3.70;;;18.00;78.00;;;;;;5027723;28;20442;-64
2022/07/12 04:33:35;;;;;;;6.57;4.22;;;17.90;77.90;;;;;;5022101;28;20041;-64
2022/07/12 04:36:01;;;;;;;6.72;4.38;;;17.90;78.00;;;;;;5025416;28;20029;-64
2022/07/12 04:38:26;;;;;;;8.27;4.10;;;18.00;78.10;;;;;;5020631;28;20068;-64
2022/07/12 04:40:52;;;;;;;7.15;4.03;;;18.00;78.20;;;;;;5022862;28;20189;-64
2022/07/12 04:43:18;;;;;;;6.60;3.95;;;18.00;78.20;;;;;;5029976;28;20370;-64
2022/07/12 04:45:44;;;;;;;7.18;4.68;;;18.00;78.20;;;;;;5026923;28;20025;-64
2022/07/12 04:48:12;;;;;;;6.30;4.25;;;18.10;78.30;;;;;;5015289;28;20025;-64
2022/07/12 04:50:39;;;;;;;7.72;4.30;;;18.10;78.40;;;;;;5027580;28;20036;-64
2022/07/12 04:53:05;;;;;;;6.80;4.38;;;18.10;78.40;;;;;;5018633;28;20032;-64
2022/07/12 04:55:30;;;;;;;7.35;4.88;;;18.10;78.40;;;;;;5020227;28;20069;-64
2022/07/12 04:57:56;;;;;;;6.97;4.53;;;18.10;78.40;;;;;;5020715;28;20076;-64
2022/07/12 05:00:22;;;;;;;7.90;5.43;;;18.20;78.50;;;;;;5031339;28;20363;-64
2022/07/12 05:02:48;;;;;;;7.72;5.25;;;18.20;78.60;;;;;;5029409;28;20104;-64
2022/07/12 05:05:14;;;;;;;8.55;5.40;;;18.30;78.70;;;;;;5013672;28;20052;-64
2022/07/12 05:07:40;;;;;;;7.80;5.78;;;18.30;78.60;;;;;;5016687;28;20057;-64
2022/07/12 05:10:07;;;;;;;7.90;5.85;;;18.30;78.60;;;;;;5033351;28;20351;-64
2022/07/12 05:12:34;;;;;;;8.90;5.80;;;18.40;78.60;;;;;;5025731;28;20374;-64
2022/07/12 05:15:00;;;;;;;8.20;5.88;;;18.50;78.60;;;;;;5033681;28;20026;-64
2022/07/12 05:17:25;;;;;;;7.00;5.15;;;18.50;78.50;;;;;;5015012;28;20408;-64
2022/07/12 05:19:51;;;;;;;7.30;5.25;;;18.70;78.50;;;;;;5029916;28;20029;-65
2022/07/12 05:22:16;;;;;;;9.20;5.43;;;18.80;78.10;;;;;;5021384;28;20033;-65
2022/07/12 05:24:42;;;;;;;8.25;5.65;;;18.90;77.90;;;;;;5025226;28;20036;-64
2022/07/12 05:27:08;;;;;;;8.50;6.10;;;19.00;77.80;;;;;;5013661;28;20368;-65
2022/07/12 05:29:33;;;;;;;8.85;6.40;;;19.10;77.70;;;;;;5033739;28;20021;-64
2022/07/12 05:32:01;;;;;;;8.95;6.45;;;19.20;77.60;;;;;;5028891;28;20041;-65
2022/07/12 05:34:26;;;;;;;10.02;7.38;;;19.30;77.40;;;;;;5020106;28;20045;-65
2022/07/12 05:36:52;;;;;;;9.02;6.80;;;19.40;77.20;;;;;;5016041;28;20034;-65
2022/07/12 05:39:18;;;;;;;8.77;6.72;;;19.50;77.00;;;;;;5014141;28;20418;-65
2022/07/12 05:41:44;;;;;;;9.60;7.40;;;19.60;76.80;;;;;;5014025;28;20116;-64
2022/07/12 05:44:09;;;;;;;10.05;7.10;;;19.70;76.50;;;;;;5015190;28;20108;-64
2022/07/12 05:46:36;;;;;;;8.50;6.47;;;19.80;76.30;;;;;;5016539;28;20076;-65
2022/07/12 05:49:02;;;;;;;9.93;7.00;;;19.90;76.20;;;;;;5014271;28;20121;-64
2022/07/12 05:54:12;;;;;;;9.73;7.93;;;19.90;76.50;;;;;;5014999;28;20434;-66
2022/07/12 05:56:37;;;;;;;9.75;7.72;;;19.80;76.60;;;;;;5014092;28;20057;-62
2022/07/12 05:59:03;;;;;;;11.48;7.97;;;19.90;76.60;;;;;;5014256;28;20030;-64
2022/07/12 06:01:29;;;;;;;10.52;8.23;;;20.00;76.60;;;;;;5013103;28;20030;-63
2022/07/12 06:03:54;;;;;;;10.27;8.38;;;20.20;76.30;;;;;;5014227;28;20040;-64
2022/07/12 06:06:20;;;;;;;10.15;8.02;;;20.30;76.00;;;;;;5014729;28;20479;-63
2022/07/12 06:08:46;;;;;;;9.88;8.18;;;20.40;75.70;;;;;;5013815;28;20026;-63
2022/07/12 06:11:12;;;;;;;11.95;8.20;;;20.60;75.40;;;;;;5014416;28;20129;-63
2022/07/12 06:13:37;;;;;;;10.05;7.60;;;20.70;75.20;;;;;;5013352;28;20105;-63
2022/07/12 06:16:05;;;;;;;9.80;7.32;;;20.90;74.90;;;;;;5013494;28;20526;-64
2022/07/12 06:18:34;;;;;;;8.93;7.07;;;20.90;74.60;;;;;;5014334;28;20026;-64
2022/07/12 06:21:00;;;;;;;9.25;6.68;;;21.10;74.40;;;;;;5014337;28;20062;-63
2022/07/12 06:23:26;;;;;;;9.40;7.03;;;21.20;74.10;;;;;;5014619;28;20411;-63
2022/07/12 06:25:51;;;;;;;9.32;7.43;;;21.40;73.80;;;;;;5019031;28;20037;-63
2022/07/12 06:28:17;;;;;;;9.45;6.30;;;21.50;73.40;;;;;;5025614;28;20375;-63
2022/07/12 06:30:43;;;;;;;8.10;6.00;;;21.50;73.20;;;;;;5030948;28;20063;-63
2022/07/12 06:33:08;;;;;;;8.25;6.00;;;21.60;73.00;;;;;;5034313;28;20413;-63
2022/07/12 06:35:34;;;;;;;8.38;6.53;;;21.60;72.70;;;;;;5034848;28;20427;-63
2022/07/12 06:38:00;;;;;;;9.68;6.32;;;21.70;72.60;;;;;;5034177;28;20026;-63
2022/07/12 06:40:25;;;;;;;8.77;6.38;;;21.70;72.40;;;;;;5034144;28;20026;-64
2022/07/12 06:42:51;;;;;;;11.45;5.50;;;21.90;72.30;;;;;;5031630;28;20048;-63
2022/07/12 06:45:16;;;;;;;9.43;6.65;;;22.00;71.90;;;;;;5033564;28;20037;-63
2022/07/12 06:47:42;;;;;;;8.05;5.65;;;22.00;71.70;;;;;;5027131;28;20032;-63
2022/07/12 06:50:08;;;;;;;7.53;5.03;;;22.00;71.70;;;;;;5031128;28;20108;-62
2022/07/12 06:52:34;;;;;;;8.80;5.88;;;21.90;71.80;;;;;;5022527;28;20058;-63
2022/07/12 06:55:00;;;;;;;8.13;5.65;;;22.00;72.00;;;;;;5032072;28;20029;-63
2022/07/12 06:57:33;;;;;;;8.38;5.15;;;22.00;72.00;;;;;;5026465;28;20122;-64
2022/07/12 06:59:59;;;;;;;7.97;5.50;;;22.00;71.90;;;;;;5024954;28;20527;-63
2022/07/12 07:02:25;;;;;;;7.45;4.85;;;22.10;71.80;;;;;;5017293;28;20121;-64
2022/07/12 07:04:51;;;;;;;7.88;4.78;;;22.20;71.70;;;;;;5017365;28;20076;-64
2022/07/12 07:07:17;;;;;;;8.70;5.55;;;22.40;71.40;;;;;;5016333;28;20054;-64
2022/07/12 07:09:43;;;;;;;8.63;5.43;;;22.60;71.00;;;;;;5017242;28;20029;-64
2022/07/12 07:12:09;;;;;;;8.07;5.45;;;22.90;70.40;;;;;;5017032;28;20074;-64
2022/07/12 07:14:34;;;;;;;6.88;4.55;;;23.10;69.70;;;;;;5017290;28;20025;-64
2022/07/12 07:17:00;;;;;;;7.07;4.32;;;23.30;69.20;;;;;;5031803;28;20344;-64
2022/07/12 07:19:26;;;;;;;6.95;4.45;;;23.50;68.80;;;;;;5016768;28;20026;-64
2022/07/12 07:21:53;;;;;;;7.50;4.18;;;23.80;68.20;;;;;;5016604;28;20447;-63
2022/07/12 07:24:19;;;;;;;6.75;4.50;;;24.00;67.70;;;;;;5017120;28;20036;-63
2022/07/12 07:26:45;;;;;;;7.82;4.15;;;24.20;67.20;;;;;;5028428;28;20025;-63
2022/07/12 07:31:55;;;;;;;6.65;3.47;;;24.60;66.10;;;;;;5019405;28;20033;-63
2022/07/12 07:34:22;;;;;;;6.38;3.30;;;24.80;65.60;;;;;;5034019;28;20347;-63
2022/07/12 07:36:47;;;;;;;5.35;2.75;;;24.90;64.90;;;;;;5020032;28;20403;-64
2022/07/12 07:39:13;;;;;;;5.88;2.97;;;25.10;64.50;;;;;;5018366;28;20069;-63
2022/07/12 07:41:39;;;;;;;5.90;2.90;;;25.10;64.00;;;;;;5024375;28;20038;-64
2022/07/12 07:44:04;;;;;;;6.93;3.10;;;25.10;63.70;;;;;;5032132;28;20080;-63
2022/07/12 07:46:30;;;;;;;6.40;3.55;;;25.10;63.50;;;;;;5022493;28;20080;-63
2022/07/12 07:48:55;;;;;;;6.03;3.50;;;25.10;63.20;;;;;;5028705;28;20029;-64
2022/07/12 07:51:21;;;;;;;6.40;3.60;;;25.00;63.00;;;;;;5028937;28;20033;-64
2022/07/12 07:53:47;;;;;;;7.38;3.78;;;24.90;63.20;;;;;;5036100;28;20059;-63
2022/07/12 07:56:12;;;;;;;7.55;3.38;;;24.70;63.40;;;;;;5028144;28;20032;-63
2022/07/12 07:58:38;;;;;;;6.93;3.63;;;24.60;63.70;;;;;;5023593;28;20109;-63
2022/07/12 08:01:03;;;;;;;7.10;4.00;;;24.50;63.70;;;;;;5018619;28;20092;-63
2022/07/12 08:03:29;;;;;;;6.53;3.55;;;24.50;63.60;;;;;;5014162;28;20029;-64
2022/07/12 08:05:57;;;;;;;5.50;3.00;;;24.60;63.30;;;;;;5018107;28;20037;-63
2022/07/12 08:08:23;;;;;;;6.60;3.38;;;24.70;63.10;;;;;;5020469;28;20296;-64
2022/07/12 08:10:51;;;;;;;6.90;3.70;;;24.90;62.80;;;;;;5022124;28;20458;-64
2022/07/12 08:13:17;;;;;;;7.40;3.65;;;25.10;62.00;;;;;;5018608;28;20022;-64
2022/07/12 08:15:43;;;;;;;5.85;2.97;;;25.20;61.70;;;;;;5013968;28;20447;-64
2022/07/12 08:18:08;;;;;;;6.07;3.15;;;25.20;61.60;;;;;;5012405;28;20091;-63
2022/07/12 08:20:34;;;;;;;5.90;3.10;;;25.20;61.40;;;;;;5012981;28;20033;-63
2022/07/12 08:23:00;;;;;;;5.63;3.05;;;25.10;61.40;;;;;;5012503;28;20478;-64
2022/07/12 08:25:25;;;;;;;6.47;3.00;;;25.10;61.40;;;;;;5014534;28;20030;-63
2022/07/12 08:27:51;;;;;;;5.72;2.78;;;25.30;61.30;;;;;;5015067;28;20192;-63
2022/07/12 08:30:17;;;;;;;5.50;2.83;;;25.40;61.10;;;;;;5012918;28;20053;-66
2022/07/12 08:32:43;;;;;;;6.10;2.97;;;25.50;60.80;;;;;;5012616;28;20143;-64
2022/07/12 08:35:09;;;;;;;6.60;4.03;;;25.60;60.70;;;;;;5015755;28;20032;-64
2022/07/12 08:37:35;;;;;;;6.15;3.17;;;25.60;60.10;;;;;;5015020;28;20025;-64
2022/07/12 08:40:00;;;;;;;5.57;3.05;;;25.70;59.90;;;;;;5015851;28;20102;-64
2022/07/12 08:42:26;;;;;;;6.10;3.20;;;25.70;59.90;;;;;;5012980;28;20040;-64
2022/07/12 08:44:56;;;;;;;5.95;2.88;;;25.60;60.00;;;;;;5014042;28;20436;-64
2022/07/12 08:47:22;;;;;;;5.70;3.25;;;25.60;60.10;;;;;;5012526;28;20037;-63
2022/07/12 08:50:10;;;;;;;5.88;3.05;;;25.60;59.60;;;;;;5012666;28;20030;-64
2022/07/12 08:52:40;;;;;;;5.82;2.90;;;25.50;59.10;;;;;;5015762;28;20041;-64
2022/07/12 08:55:21;;;;;;;7.63;3.03;;;25.60;59.20;;;;;;5015132;28;20034;-64
2022/07/12 08:57:48;;;;;;;4.95;2.63;;;25.80;58.80;;;;;;5013845;28;20037;-63
2022/07/12 09:00:15;;;;;;;7.45;3.03;;;26.00;58.60;;;;;;5009557;28;20463;-64
2022/07/12 09:02:52;;;;;;;6.35;2.50;;;26.20;58.50;;;;;;5013416;28;20040;-63
2022/07/12 09:05:27;;;;;;;5.18;2.50;;;26.30;58.00;;;;;;5013809;28;20037;-64
2022/07/12 09:08:02;;;;;;;5.45;2.15;;;26.50;57.60;;;;;;5013022;28;20025;-63
2022/07/12 09:10:28;;;;;;;5.32;2.70;;;26.70;57.00;;;;;;5014993;28;20116;-63
2022/07/12 09:12:54;;;;;;;5.40;2.60;;;27.00;56.80;;;;;;5009424;28;20443;-63
2022/07/12 09:15:22;;;;;;;4.63;2.00;;;27.20;56.10;;;;;;5010944;28;20355;-63
2022/07/12 09:18:12;;;;;;;5.72;2.60;;;27.30;55.60;;;;;;5009739;28;20052;-63
2022/07/12 09:20:39;;;;;;;4.22;2.10;;;27.40;55.00;;;;;;5009471;28;20152;-63
2022/07/12 09:23:11;;;;;;;4.53;2.50;;;27.60;55.00;;;;;;5011910;28;20038;-63
2022/07/12 09:25:44;;;;;;;6.00;2.60;;;27.70;54.40;;;;;;5010039;28;20032;-63
2022/07/12 09:28:11;;;;;;;4.38;2.10;;;27.90;54.10;;;;;;5009537;28;20030;-64
2022/07/12 09:30:47;;;;;;;5.20;2.17;;;28.00;54.20;;;;;;4999124;28;20046;-65
2022/07/12 09:36:15;;;;;;;5.30;1.80;;;28.30;53.80;;;;;;4996084;28;20087;-63
2022/07/12 09:39:00;;;;;;;4.22;1.80;;;28.40;53.40;;;;;;5004929;28;20455;-64
2022/07/12 09:41:27;;;;;;;5.40;2.10;;;28.60;52.80;;;;;;5013639;28;20037;-64
2022/07/12 09:43:53;;;;;;;3.85;1.73;;;28.60;52.50;;;;;;5014566;28;20038;-64
2022/07/12 09:46:19;;;;;;;4.50;1.67;;;28.70;52.10;;;;;;5017553;28;20339;-64
2022/07/12 09:48:46;;;;;;;4.18;1.83;;;28.70;51.90;;;;;;5014397;28;20025;-64
2022/07/12 09:51:17;;;;;;;5.18;2.22;;;28.80;51.70;;;;;;5015694;28;20041;-64
2022/07/12 09:53:47;;;;;;;4.72;2.05;;;28.90;51.60;;;;;;5014081;28;20056;-64
2022/07/12 09:56:18;;;;;;;4.13;1.90;;;29.00;51.30;;;;;;5020533;28;20121;-63
2022/07/12 09:58:57;;;;;;;5.13;2.00;;;29.00;51.30;;;;;;5014294;28;20045;-64
2022/07/12 10:01:24;;;;;;;5.45;1.80;;;29.20;51.10;;;;;;5012096;28;20100;-64
2022/07/12 10:03:51;;;;;;;4.60;1.70;;;29.20;51.20;;;;;;5012326;28;20586;-64
2022/07/12 10:06:29;;;;;;;3.90;1.95;;;29.40;50.90;;;;;;5012005;28;20018;-64
2022/07/12 10:08:56;;;;;;;4.10;1.92;;;29.40;50.40;;;;;;5010819;28;20106;-64
2022/07/12 10:11:23;;;;;;;5.63;1.77;;;29.50;50.50;;;;;;5017871;28;20057;-64
2022/07/12 10:13:51;;;;;;;5.55;2.28;;;29.50;50.30;;;;;;5024228;28;20074;-64
2022/07/12 10:16:26;;;;;;;4.03;1.98;;;29.60;50.10;;;;;;5019363;28;20026;-64
2022/07/12 10:19:20;;;;;;;4.85;1.65;;;29.60;49.80;;;;;;5014662;28;20034;-64
2022/07/12 10:21:48;;;;;;;4.43;2.15;;;29.60;49.70;;;;;;5009016;28;20125;-64
2022/07/12 10:24:32;;;;;;;3.88;1.90;;;29.70;49.70;;;;;;5012547;28;20030;-64
2022/07/12 10:27:21;;;;;;;3.30;1.60;;;29.80;49.40;;;;;;5016030;28;20364;-64
2022/07/12 10:29:52;;;;;;;3.60;1.75;;;29.90;49.10;;;;;;5014089;28;20120;-64
2022/07/12 10:32:25;;;;;;;;;;;29.90;49.00;;;;;;5017578;28;20044;-66
2022/07/12 10:35:02;;;;;;;2.25;1.20;;;29.90;49.20;;;;;;5017220;28;19909;-64
2022/07/12 10:37:29;;;;;;;2.38;1.20;;;29.90;49.00;;;;;;5016003;28;20132;-64
2022/07/12 10:40:13;;;;;;;3.55;1.60;;;29.90;48.90;;;;;;5007244;28;20034;-64
2022/07/12 10:42:40;;;;;;;3.38;1.30;;;30.00;48.40;;;;;;5019394;28;20072;-64
2022/07/12 10:45:15;;;;;;;3.65;1.27;;;30.10;48.30;;;;;;5017821;28;20113;-64
2022/07/12 10:48:01;;;;;;;3.17;1.20;;;30.10;47.80;;;;;;5017140;28;20034;-65
2022/07/12 10:50:45;;;;;;;2.58;1.40;;;30.30;47.80;;;;;;5007405;28;20340;-64
2022/07/12 10:53:33;;;;;;;1.70;1.00;;;30.30;47.60;;;;;;5023875;28;20023;-64
2022/07/12 10:56:19;;;;;;;1.98;1.25;;;30.40;47.50;;;;;;5010174;28;20458;-64
2022/07/12 10:58:56;;;;;;;1.83;1.15;;;30.50;47.10;;;;;;5014462;28;20123;-64
2022/07/12 11:01:27;;;;;;;3.10;1.60;;;30.40;46.90;;;;;;5022737;28;20048;-61
2022/07/12 11:04:02;;;;;;;3.35;1.42;;;30.40;47.20;;;;;;5016684;28;20045;-61
2022/07/12 11:06:28;;;;;;;3.58;1.40;;;30.40;47.20;;;;;;5021347;28;20033;-61
2022/07/12 11:09:08;;;;;;;2.78;1.40;;;30.40;47.20;;;;;;5006638;28;20033;-61
2022/07/12 11:11:43;;;;;;;4.60;1.67;;;30.30;46.80;;;;;;5015925;28;20050;-60
2022/07/12 11:14:11;;;;;;;4.13;1.70;;;30.30;47.00;;;;;;5014261;28;20042;-61
2022/07/12 11:16:48;;;;;;;4.18;1.60;;;30.30;46.90;;;;;;5007892;28;20026;-62
2022/07/12 11:19:14;;;;;;;3.03;1.60;;;30.40;46.90;;;;;;5011772;28;20034;-61
2022/07/12 11:21:44;;;;;;;3.13;1.60;;;30.50;47.00;;;;;;5009048;28;20121;-62
2022/07/12 11:24:17;;;;;;;3.77;1.50;;;30.50;47.00;;;;;;5012243;28;20332;-62
2022/07/12 11:26:43;;;;;;;3.35;1.58;;;30.60;46.80;;;;;;5014030;28;20308;-62
2022/07/12 11:29:11;;;;;;;2.55;1.30;;;30.50;46.70;;;;;;4997427;28;20026;-62
2022/07/12 11:31:36;;;;;;;2.42;1.27;;;30.50;46.50;;;;;;5015844;28;20060;-62
2022/07/12 11:34:02;;;;;;;2.60;1.50;;;30.40;46.50;;;;;;4996724;28;20054;-62
2022/07/12 11:36:30;;;;;;;4.95;1.70;;;30.40;46.40;;;;;;4996132;28;20079;-63
2022/07/12 11:38:56;;;;;;;4.13;1.67;;;30.30;46.10;;;;;;5021174;28;20038;-62
2022/07/12 11:41:24;;;;;;;2.08;1.15;;;30.20;46.10;;;;;;5028658;28;20353;-62
2022/07/12 11:43:50;;;;;;;3.78;1.67;;;30.20;46.10;;;;;;5013129;28;20351;-62
2022/07/12 11:46:15;;;;;;;2.80;1.50;;;30.20;45.70;;;;;;5012310;28;20033;-62
2022/07/12 11:48:42;;;;;;;3.88;1.48;;;30.20;45.60;;;;;;4991376;28;20014;-62
2022/07/12 11:51:13;;;;;;;4.53;1.55;;;30.20;45.60;;;;;;5018260;28;20030;-62
2022/07/12 11:53:40;;;;;;;3.22;1.38;;;30.20;45.60;;;;;;5014637;28;20172;-62
2022/07/12 11:56:08;;;;;;;2.70;1.30;;;30.30;45.60;;;;;;5015519;28;20026;-62
2022/07/12 11:58:38;;;;;;;3.30;1.65;;;30.20;45.40;;;;;;4989393;28;20030;-62
2022/07/12 12:01:05;;;;;;;3.97;1.93;;;30.20;45.30;;;;;;5028381;28;20038;-62
2022/07/12 12:03:41;;;;;;;3.47;1.67;;;30.20;45.30;;;;;;5009362;28;20286;-62
2022/07/12 12:06:07;;;;;;;4.88;2.42;;;30.10;45.60;;;;;;5011289;28;20071;-62
2022/07/12 12:08:32;;;;;;;5.72;2.80;;;30.10;45.90;;;;;;5003532;28;20069;-62
2022/07/12 12:10:59;;;;;;;5.07;2.35;;;30.00;46.10;;;;;;4990734;28;20163;-62
2022/07/12 12:13:27;;;;;;;3.28;1.73;;;30.00;46.40;;;;;;5015419;28;20394;-62
2022/07/12 12:15:56;;;;;;;3.42;2.00;;;29.90;46.20;;;;;;5013685;28;20534;-61
2022/07/12 12:18:38;;;;;;;4.57;1.83;;;29.90;46.20;;;;;;4996243;28;20018;-62
2022/07/12 12:21:08;;;;;;;5.13;2.47;;;29.80;46.40;;;;;;5011640;28;20033;-62
2022/07/12 12:23:36;;;;;;;4.70;2.10;;;29.80;46.50;;;;;;5010987;28;20026;-62
2022/07/12 12:26:30;;;;;;;6.30;2.03;;;29.60;46.60;;;;;;5012841;28;20033;-62
2022/07/12 12:28:56;;;;;;;4.90;2.08;;;29.60;46.80;;;;;;5011425;28;20037;-62
2022/07/12 12:31:23;;;;;;;4.28;2.28;;;29.50;46.60;;;;;;5015065;28;20413;-62
2022/07/12 12:33:56;;;;;;;4.72;2.15;;;29.50;46.40;;;;;;5013599;28;20120;-62
2022/07/12 12:36:23;;;;;;;5.47;2.10;;;29.40;46.30;;;;;;5013789;28;20029;-62
2022/07/12 12:38:50;;;;;;;3.92;1.80;;;29.30;46.40;;;;;;5015962;28;20033;-62
2022/07/12 12:41:17;;;;;;;3.70;1.85;;;29.20;46.10;;;;;;5013811;28;20048;-61
2022/07/12 12:43:43;;;;;;;4.93;2.17;;;29.20;46.10;;;;;;5014907;28;20033;-62
2022/07/12 12:46:09;;;;;;;3.13;1.60;;;29.10;46.10;;;;;;5014951;28;20022;-62
2022/07/12 12:48:36;;;;;;;4.30;2.22;;;29.00;46.40;;;;;;5013453;28;20352;-62
2022/07/12 12:51:08;;;;;;;3.90;1.73;;;29.00;46.50;;;;;;5015982;28;20053;-62
2022/07/12 12:53:36;;;;;;;3.92;2.00;;;29.00;46.80;;;;;;5018535;28;20470;-62
2022/07/12 12:56:09;;;;;;;3.65;2.03;;;29.00;47.00;;;;;;5014218;28;20018;-62
2022/07/12 12:58:36;;;;;;;4.80;2.35;;;29.00;47.30;;;;;;5014922;28;20455;-62
2022/07/12 13:01:02;;;;;;;3.25;1.73;;;29.00;47.40;;;;;;5012136;28;20451;-62
2022/07/12 13:03:28;;;;;;;4.13;1.92;;;28.90;47.40;;;;;;5014002;28;20034;-62